Terminal Aerodrome Forecast
Issued by NWS Sterling, VA

Current Version | Previous Version | Graphics & Text | Print | Product List | Glossary On
Versions: 1 2 3 4 5 6 7 8 9 10 11 12 13 14
000
FTUS41 KLWX 202320
TAFMRB
TAF
KMRB 202320Z 2100/2124 08004KT P6SM SKC
     FM210200 VRB03KT P6SM FEW200
     FM211400 VRB03KT P6SM SKC
     FM212300 17004KT P6SM FEW250=

USA.gov is the U.S. government's official web portal to all federal, state and local government web resources and services.